Time;durP1;ratioP1;P1;durP2;ratioP2;P2;SDS_P1;SDS_P2;PMS_P1;PMS_P2;Temp;Humidity;BMP_temperature;BMP_pressure;BME280_temperature;BME280_humidity;BME280_pressure;Samples;Min_cycle;Max_cycle;Signal;HPM_P1;HPM_P2
2023/10/25 00:02:19;;;;;;;1.40;0.70;;;12.80;90.40;;;;;;4977958;28;21174;-62
2023/10/25 00:04:45;;;;;;;1.05;0.85;;;12.80;90.40;;;;;;4980876;28;20100;-62
2023/10/25 00:07:11;;;;;;;0.80;0.80;;;12.80;90.40;;;;;;4983142;28;20113;-63
2023/10/25 00:09:36;;;;;;;1.88;0.90;;;12.70;90.40;;;;;;4981274;28;20699;-62
2023/10/25 00:12:02;;;;;;;1.52;1.00;;;12.70;90.40;;;;;;4976279;28;20045;-63
2023/10/25 00:14:28;;;;;;;1.10;0.90;;;12.70;90.50;;;;;;4981697;28;20578;-63
2023/10/25 00:16:53;;;;;;;1.17;1.02;;;12.60;90.60;;;;;;4984226;28;20112;-63
2023/10/25 00:19:19;;;;;;;0.80;0.80;;;12.60;90.70;;;;;;4983438;28;20500;-61
2023/10/25 00:21:45;;;;;;;1.00;0.90;;;12.50;90.80;;;;;;4981476;28;20034;-63
2023/10/25 00:24:10;;;;;;;0.80;0.80;;;12.50;90.90;;;;;;4983579;28;20184;-62
2023/10/25 00:26:36;;;;;;;1.38;1.10;;;12.40;91.00;;;;;;4982765;28;20522;-63
2023/10/25 00:29:02;;;;;;;1.13;1.02;;;12.40;91.10;;;;;;4985746;28;20046;-63
2023/10/25 00:31:27;;;;;;;1.17;1.00;;;12.40;91.20;;;;;;4982188;28;20030;-63
2023/10/25 00:33:53;;;;;;;1.63;1.05;;;12.40;91.20;;;;;;4982432;28;20462;-63
2023/10/25 00:36:18;;;;;;;1.38;1.27;;;12.30;91.30;;;;;;4981124;28;20042;-63
2023/10/25 00:38:44;;;;;;;1.08;1.08;;;12.30;91.40;;;;;;4979621;28;20088;-61
2023/10/25 00:41:10;;;;;;;3.10;0.90;;;12.30;91.50;;;;;;4982583;28;20042;-63
2023/10/25 00:43:38;;;;;;;2.10;1.10;;;12.40;91.90;;;;;;4980890;28;20145;-63
2023/10/25 00:46:11;;;;;;;1.13;1.02;;;12.30;91.50;;;;;;4982731;28;20542;-62
2023/10/25 00:48:39;;;;;;;1.60;0.90;;;12.30;91.50;;;;;;4982025;28;20703;-63
2023/10/25 00:51:05;;;;;;;0.70;0.70;;;12.40;91.50;;;;;;4984104;28;20447;-62
2023/10/25 00:53:32;;;;;;;0.70;0.70;;;12.40;91.60;;;;;;4981384;28;20124;-61
2023/10/25 00:56:00;;;;;;;0.90;0.90;;;12.40;91.50;;;;;;4985720;28;20068;-63
2023/10/25 00:58:27;;;;;;;0.80;0.80;;;12.40;91.50;;;;;;4986240;28;20035;-63
2023/10/25 01:00:55;;;;;;;0.88;0.88;;;12.40;91.50;;;;;;4982196;28;20078;-63
2023/10/25 01:03:21;;;;;;;0.98;0.95;;;12.40;91.40;;;;;;4986347;28;20041;-63
2023/10/25 01:05:47;;;;;;;2.38;0.95;;;12.40;91.30;;;;;;4986039;28;20049;-63
2023/10/25 01:08:20;;;;;;;1.00;0.80;;;12.30;91.20;;;;;;4981779;28;20140;-63
2023/10/25 01:10:55;;;;;;;1.15;1.05;;;12.40;91.20;;;;;;4977512;28;20045;-63
2023/10/25 01:13:21;;;;;;;;;;;12.40;91.20;;;;;;4983462;28;20405;-63
2023/10/25 01:15:47;;;;;;;0.70;0.70;;;12.40;91.20;;;;;;4980436;28;19922;-62
2023/10/25 01:18:14;;;;;;;3.25;0.73;;;12.30;91.00;;;;;;4982630;28;20318;-64
2023/10/25 01:20:40;;;;;;;1.90;0.80;;;12.30;91.00;;;;;;4982101;28;20043;-62
2023/10/25 01:23:06;;;;;;;1.20;0.75;;;12.30;91.00;;;;;;4978753;28;20123;-62
2023/10/25 01:25:31;;;;;;;0.90;0.90;;;12.30;91.00;;;;;;4980561;28;20494;-63
2023/10/25 01:27:58;;;;;;;0.70;0.70;;;12.20;91.00;;;;;;4981530;28;20073;-63
2023/10/25 01:30:24;;;;;;;0.90;0.90;;;12.20;91.00;;;;;;4980911;28;20125;-62
2023/10/25 01:32:50;;;;;;;2.05;0.88;;;12.20;91.00;;;;;;4980907;28;20129;-63
2023/10/25 01:35:15;;;;;;;1.33;0.90;;;12.10;91.00;;;;;;4984280;28;20034;-63
2023/10/25 01:37:41;;;;;;;0.73;0.73;;;12.10;91.10;;;;;;4978462;28;20026;-62
2023/10/25 01:40:07;;;;;;;0.90;0.90;;;12.00;91.10;;;;;;4977249;28;20081;-62
2023/10/25 01:42:33;;;;;;;0.85;0.85;;;12.00;91.10;;;;;;4976555;28;20041;-63
2023/10/25 01:45:01;;;;;;;1.00;0.70;;;12.00;91.20;;;;;;4982175;28;20046;-63
2023/10/25 01:47:26;;;;;;;0.88;0.80;;;12.00;91.20;;;;;;4982570;28;20030;-63
2023/10/25 01:49:52;;;;;;;0.70;0.70;;;12.00;91.20;;;;;;4986036;28;20041;-63
2023/10/25 01:52:18;;;;;;;0.90;0.90;;;11.90;91.20;;;;;;4982436;28;20038;-63
2023/10/25 01:54:45;;;;;;;1.92;0.95;;;11.90;91.20;;;;;;4978580;28;20604;-63
2023/10/25 01:57:10;;;;;;;1.30;0.90;;;11.90;91.20;;;;;;4980934;28;20046;-63
2023/10/25 01:59:36;;;;;;;0.80;0.80;;;11.90;91.10;;;;;;4974636;28;20683;-64
2023/10/25 02:02:02;;;;;;;0.65;0.65;;;11.90;91.00;;;;;;4984697;28;20096;-63
2023/10/25 02:04:27;;;;;;;1.00;0.80;;;11.90;91.00;;;;;;4983659;28;20035;-62
2023/10/25 02:06:54;;;;;;;1.65;0.70;;;11.90;91.00;;;;;;4985071;28;20311;-63
2023/10/25 02:09:19;;;;;;;1.20;1.10;;;11.90;90.90;;;;;;4985998;28;20086;-62
2023/10/25 02:11:45;;;;;;;0.77;0.77;;;11.80;90.90;;;;;;4978657;28;20457;-62
2023/10/25 02:14:11;;;;;;;1.23;1.00;;;11.80;90.90;;;;;;4985201;28;20112;-62
2023/10/25 02:16:36;;;;;;;1.77;1.30;;;11.80;90.90;;;;;;4984636;28;20034;-63
2023/10/25 02:19:02;;;;;;;1.20;0.98;;;11.80;90.90;;;;;;4987506;28;20418;-63
2023/10/25 02:21:28;;;;;;;1.98;1.40;;;11.80;91.00;;;;;;4982306;28;20034;-63
2023/10/25 02:23:54;;;;;;;1.00;1.00;;;11.80;91.00;;;;;;4985107;28;20030;-63
2023/10/25 02:26:20;;;;;;;1.95;0.98;;;11.80;91.10;;;;;;4986027;28;20057;-62
2023/10/25 02:28:46;;;;;;;1.20;0.93;;;11.80;91.10;;;;;;4981360;28;20030;-63
2023/10/25 02:31:12;;;;;;;0.93;0.93;;;11.80;91.20;;;;;;4982813;28;20046;-62
2023/10/25 02:33:38;;;;;;;0.88;0.82;;;11.80;91.10;;;;;;4983790;28;20518;-62
2023/10/25 02:36:04;;;;;;;1.42;0.88;;;11.80;91.20;;;;;;4982670;28;20255;-63
2023/10/25 02:38:30;;;;;;;0.95;0.95;;;11.80;91.20;;;;;;4984758;28;20042;-62
2023/10/25 02:40:56;;;;;;;0.90;0.90;;;11.80;91.20;;;;;;4982991;28;20042;-63
2023/10/25 02:43:22;;;;;;;0.73;0.73;;;11.80;91.20;;;;;;4981608;28;20037;-62
2023/10/25 02:45:47;;;;;;;2.40;1.27;;;11.80;91.30;;;;;;4978328;28;20047;-63
2023/10/25 02:48:13;;;;;;;3.00;1.20;;;11.80;91.30;;;;;;4987042;28;20038;-63
2023/10/25 02:50:39;;;;;;;2.92;1.08;;;11.80;91.20;;;;;;4986413;28;20030;-63
2023/10/25 02:53:05;;;;;;;1.15;1.10;;;11.80;91.20;;;;;;4986762;28;20046;-61
2023/10/25 02:55:35;;;;;;;1.02;1.00;;;11.80;91.10;;;;;;4987230;28;20039;-63
2023/10/25 02:58:01;;;;;;;1.02;0.88;;;11.70;91.00;;;;;;4987669;28;20034;-63
2023/10/25 03:00:27;;;;;;;4.22;1.00;;;11.70;90.90;;;;;;4986198;28;20043;-64
2023/10/25 03:02:53;;;;;;;1.20;1.13;;;11.70;91.00;;;;;;4987125;28;20042;-63
2023/10/25 03:05:18;;;;;;;1.02;0.90;;;11.70;91.00;;;;;;4987603;28;20665;-62
2023/10/25 03:07:44;;;;;;;1.45;1.00;;;11.70;91.00;;;;;;4986783;28;20034;-63
2023/10/25 03:10:10;;;;;;;0.95;0.90;;;11.70;91.00;;;;;;4986615;28;20308;-62
2023/10/25 03:12:35;;;;;;;1.85;0.95;;;11.60;90.90;;;;;;4983370;28;20031;-63
2023/10/25 03:15:01;;;;;;;0.82;0.82;;;11.60;90.90;;;;;;4986123;28;20064;-61
2023/10/25 03:17:30;;;;;;;3.05;1.15;;;11.60;91.00;;;;;;4987368;28;20556;-63
2023/10/25 03:19:56;;;;;;;1.10;1.00;;;11.60;91.00;;;;;;4987178;28;20042;-62
2023/10/25 03:22:22;;;;;;;1.02;0.93;;;11.60;91.00;;;;;;4987553;28;20617;-63
2023/10/25 03:24:47;;;;;;;0.80;0.80;;;11.60;91.00;;;;;;4986245;28;20065;-63
2023/10/25 03:27:13;;;;;;;0.88;0.88;;;11.60;91.00;;;;;;4986298;28;20096;-62
2023/10/25 03:29:38;;;;;;;1.23;1.13;;;11.60;91.00;;;;;;4987487;28;20453;-61
2023/10/25 03:32:04;;;;;;;1.00;1.00;;;11.60;91.00;;;;;;4987135;28;20038;-61
2023/10/25 03:34:30;;;;;;;0.93;0.93;;;11.60;91.00;;;;;;4987095;28;20031;-63
2023/10/25 03:36:55;;;;;;;1.02;1.02;;;11.60;90.90;;;;;;4987590;28;20046;-61
2023/10/25 03:39:21;;;;;;;1.10;1.10;;;11.60;90.80;;;;;;4986966;28;20498;-61
2023/10/25 03:41:47;;;;;;;1.15;1.00;;;11.60;90.80;;;;;;4986677;28;20034;-62
2023/10/25 03:44:13;;;;;;;1.40;1.30;;;11.60;90.60;;;;;;4986594;28;20030;-63
2023/10/25 03:46:38;;;;;;;2.10;1.35;;;11.60;90.40;;;;;;4986221;28;20046;-61
2023/10/25 03:49:05;;;;;;;1.67;1.30;;;11.60;90.30;;;;;;4987225;28;20091;-62
2023/10/25 03:51:31;;;;;;;1.58;1.20;;;11.50;90.30;;;;;;4987213;28;20039;-63
2023/10/25 03:53:57;;;;;;;3.67;1.95;;;11.50;90.40;;;;;;4987084;28;20042;-63
2023/10/25 03:56:22;;;;;;;1.30;1.20;;;11.50;90.40;;;;;;4987413;28;20486;-63
2023/10/25 03:58:48;;;;;;;1.48;1.38;;;11.40;90.30;;;;;;4986735;28;20043;-63
2023/10/25 04:01:14;;;;;;;2.17;1.55;;;11.40;90.30;;;;;;4987543;28;20034;-61
2023/10/25 04:03:39;;;;;;;1.70;1.60;;;11.40;90.30;;;;;;4986224;28;20073;-63
2023/10/25 04:06:07;;;;;;;1.63;1.52;;;11.40;90.20;;;;;;4985114;28;20529;-62
2023/10/25 04:08:32;;;;;;;2.47;1.50;;;11.30;90.10;;;;;;4985630;28;20092;-63
2023/10/25 04:10:58;;;;;;;2.45;1.50;;;11.30;90.10;;;;;;4982719;28;20442;-63
2023/10/25 04:13:24;;;;;;;1.73;1.63;;;11.20;90.10;;;;;;4986096;28;20043;-62
2023/10/25 04:15:59;;;;;;;2.42;1.60;;;11.20;90.30;;;;;;4984824;28;20038;-63
2023/10/25 04:18:27;;;;;;;2.03;1.70;;;11.10;90.30;;;;;;4985717;28;20039;-61
2023/10/25 04:20:54;;;;;;;2.22;1.80;;;11.10;90.30;;;;;;4985348;28;20038;-63
2023/10/25 04:23:20;;;;;;;5.55;2.00;;;11.10;90.20;;;;;;4986518;28;20326;-63
2023/10/25 04:25:45;;;;;;;6.43;1.98;;;11.10;90.10;;;;;;4986510;28;20415;-63
2023/10/25 04:28:12;;;;;;;2.30;2.20;;;11.00;90.00;;;;;;4986426;28;20034;-62
2023/10/25 04:30:38;;;;;;;3.15;2.85;;;11.00;89.90;;;;;;4985744;28;20042;-62
2023/10/25 04:33:04;;;;;;;15.65;10.57;;;11.00;90.00;;;;;;4987393;28;20108;-63
2023/10/25 04:35:29;;;;;;;15.85;11.25;;;10.90;90.10;;;;;;4985316;28;20042;-63
2023/10/25 04:37:55;;;;;;;13.73;9.18;;;11.00;90.00;;;;;;4986989;28;20129;-62
2023/10/25 04:40:24;;;;;;;55.90;7.75;;;10.90;89.70;;;;;;4986535;28;20038;-61
2023/10/25 04:42:50;;;;;;;26.27;6.28;;;10.80;89.60;;;;;;4985897;28;20113;-62
2023/10/25 04:45:16;;;;;;;5.80;4.75;;;10.70;89.70;;;;;;4986034;28;20560;-63
2023/10/25 04:47:41;;;;;;;6.20;4.57;;;10.70;90.00;;;;;;4986308;28;20034;-63
2023/10/25 04:50:08;;;;;;;6.93;5.00;;;10.60;90.20;;;;;;4986727;28;20041;-63
2023/10/25 04:52:33;;;;;;;5.93;4.40;;;10.60;90.30;;;;;;4985429;28;20035;-63
2023/10/25 04:54:59;;;;;;;4.00;3.60;;;10.50;90.40;;;;;;4981290;28;20045;-63
2023/10/25 04:57:24;;;;;;;4.70;4.25;;;10.50;90.60;;;;;;4986190;28;20034;-63
2023/10/25 04:59:50;;;;;;;5.53;3.80;;;10.50;90.70;;;;;;4986300;28;20490;-63
2023/10/25 05:02:16;;;;;;;4.20;3.80;;;10.50;90.90;;;;;;4985946;28;20034;-61
2023/10/25 05:04:42;;;;;;;3.97;3.65;;;10.50;91.00;;;;;;4985758;28;20047;-62
2023/10/25 05:07:08;;;;;;;4.65;3.45;;;10.50;91.10;;;;;;4986720;28;20130;-62
2023/10/25 05:09:34;;;;;;;5.50;4.75;;;10.50;91.30;;;;;;4986054;28;20030;-63
2023/10/25 05:12:04;;;;;;;10.18;6.15;;;10.50;91.30;;;;;;4983012;28;20568;-63
2023/10/25 05:14:30;;;;;;;8.95;5.45;;;10.60;91.40;;;;;;4985394;28;20041;-63
2023/10/25 05:16:56;;;;;;;6.10;5.10;;;10.60;91.40;;;;;;4986155;28;20043;-62
2023/10/25 05:19:22;;;;;;;6.57;5.47;;;10.60;91.40;;;;;;4986223;28;20072;-62
2023/10/25 05:21:51;;;;;;;6.95;5.72;;;10.70;91.40;;;;;;4986370;28;20417;-63
2023/10/25 05:24:17;;;;;;;6.00;5.40;;;10.70;91.40;;;;;;4988435;28;20089;-63
2023/10/25 05:26:43;;;;;;;6.65;5.45;;;10.70;91.30;;;;;;4989306;28;20035;-62
2023/10/25 05:29:09;;;;;;;7.32;5.57;;;10.80;91.30;;;;;;4990040;28;20122;-63
2023/10/25 05:31:42;;;;;;;5.60;4.57;;;10.80;91.20;;;;;;4989027;28;20462;-63
2023/10/25 05:34:08;;;;;;;5.45;4.20;;;10.80;91.20;;;;;;4989897;28;20514;-63
2023/10/25 05:36:34;;;;;;;5.45;4.43;;;10.80;91.10;;;;;;4989140;28;20042;-63
2023/10/25 05:39:03;;;;;;;6.38;4.70;;;10.80;91.10;;;;;;4990071;28;20514;-61
2023/10/25 05:41:30;;;;;;;6.07;5.03;;;10.70;91.10;;;;;;4989769;28;20031;-63
2023/10/25 05:44:07;;;;;;;10.10;8.40;;;10.80;91.10;;;;;;4989274;28;20090;-63
2023/10/25 05:46:33;;;;;;;8.57;6.70;;;10.80;91.10;;;;;;4988815;28;20157;-63
2023/10/25 05:48:58;;;;;;;7.60;6.80;;;10.70;91.00;;;;;;4989657;28;20128;-61
2023/10/25 05:51:24;;;;;;;7.40;6.53;;;10.80;91.00;;;;;;4989585;28;20038;-63
2023/10/25 05:53:50;;;;;;;6.50;5.75;;;10.80;91.00;;;;;;4989513;28;20081;-62
2023/10/25 05:56:17;;;;;;;5.88;5.30;;;10.80;90.90;;;;;;4989782;28;20038;-63
2023/10/25 05:58:43;;;;;;;7.00;5.97;;;10.80;90.80;;;;;;4986135;28;20387;-62
2023/10/25 06:01:09;;;;;;;7.75;5.78;;;10.70;90.70;;;;;;4989268;28;20037;-62
2023/10/25 06:03:35;;;;;;;6.25;5.13;;;10.70;90.60;;;;;;4989159;28;20501;-62
2023/10/25 06:06:02;;;;;;;7.13;5.45;;;10.70;90.60;;;;;;4989509;28;20092;-62
2023/10/25 06:08:29;;;;;;;10.02;5.28;;;10.70;90.60;;;;;;4989083;28;20811;-63
2023/10/25 06:10:55;;;;;;;6.80;4.68;;;10.60;90.50;;;;;;4985207;28;20416;-62
2023/10/25 06:13:21;;;;;;;5.72;4.40;;;10.60;90.40;;;;;;4989248;28;20038;-62
2023/10/25 06:15:46;;;;;;;4.22;3.80;;;10.60;90.40;;;;;;4988911;28;20038;-63
2023/10/25 06:18:12;;;;;;;6.50;4.13;;;10.50;90.40;;;;;;4989249;28;20137;-63
2023/10/25 06:20:38;;;;;;;4.57;4.00;;;10.50;90.40;;;;;;4988415;28;20126;-63
2023/10/25 06:23:03;;;;;;;5.30;4.78;;;10.40;90.40;;;;;;4988978;28;20120;-63
2023/10/25 06:25:32;;;;;;;6.95;4.00;;;10.50;90.40;;;;;;4988834;28;20042;-62
2023/10/25 06:27:59;;;;;;;12.70;3.85;;;10.40;90.30;;;;;;4989048;28;20067;-63
2023/10/25 06:30:28;;;;;;;14.93;4.18;;;10.40;90.70;;;;;;4989170;28;20134;-62
2023/10/25 06:32:57;;;;;;;32.75;4.97;;;10.40;90.40;;;;;;4988303;28;20113;-63
2023/10/25 06:35:23;;;;;;;22.30;4.88;;;10.30;90.30;;;;;;4988621;28;20038;-62
2023/10/25 06:37:49;;;;;;;29.58;6.90;;;10.30;90.20;;;;;;4988865;28;20374;-62
2023/10/25 06:40:15;;;;;;;41.28;9.50;;;10.20;90.20;;;;;;4988650;28;20097;-62
2023/10/25 06:42:40;;;;;;;14.70;8.45;;;10.10;90.30;;;;;;4988003;28;20042;-61
2023/10/25 06:45:07;;;;;;;47.38;9.00;;;10.10;90.60;;;;;;4988198;28;20457;-62
2023/10/25 06:47:33;;;;;;;12.13;6.80;;;10.10;90.80;;;;;;4988454;28;20097;-62
2023/10/25 06:49:58;;;;;;;8.68;5.82;;;10.10;91.00;;;;;;4988740;28;20042;-63
2023/10/25 06:52:24;;;;;;;10.30;7.13;;;10.10;91.10;;;;;;4988610;28;20027;-62
2023/10/25 06:54:50;;;;;;;8.73;6.45;;;10.10;91.10;;;;;;4987426;28;21028;-63
2023/10/25 06:57:16;;;;;;;7.43;5.13;;;10.20;91.20;;;;;;4988322;28;20485;-62
2023/10/25 06:59:42;;;;;;;9.07;5.68;;;10.10;91.30;;;;;;4988441;28;20685;-62
2023/10/25 07:02:10;;;;;;;15.38;11.52;;;10.20;91.30;;;;;;4988233;28;20037;-63
2023/10/25 07:04:37;;;;;;;22.35;13.65;;;10.30;91.30;;;;;;4986099;28;20054;-62
2023/10/25 07:07:09;;;;;;;18.63;12.20;;;10.20;91.20;;;;;;4988172;28;20042;-63
2023/10/25 07:09:35;;;;;;;15.70;10.65;;;10.20;91.30;;;;;;4985388;28;20033;-62
2023/10/25 07:12:00;;;;;;;14.35;10.02;;;10.30;91.30;;;;;;4984917;28;20045;-63
2023/10/25 07:14:26;;;;;;;14.77;9.70;;;10.30;91.30;;;;;;4988299;28;20048;-63
2023/10/25 07:16:51;;;;;;;13.40;8.85;;;10.30;91.30;;;;;;4987549;28;20069;-61
2023/10/25 07:19:17;;;;;;;14.50;9.00;;;10.30;91.40;;;;;;4988355;28;20044;-62
2023/10/25 07:21:42;;;;;;;12.40;8.27;;;10.30;91.50;;;;;;4988076;28;20038;-62
2023/10/25 07:24:08;;;;;;;10.27;7.18;;;10.40;91.60;;;;;;4987867;28;20041;-61
2023/10/25 07:26:34;;;;;;;8.80;6.07;;;10.40;91.60;;;;;;4987267;28;20041;-63
2023/10/25 07:29:00;;;;;;;12.02;6.18;;;10.40;91.60;;;;;;4988270;28;20114;-62
2023/10/25 07:31:25;;;;;;;10.63;7.25;;;10.40;91.70;;;;;;4987749;28;20041;-62
2023/10/25 07:33:51;;;;;;;9.85;5.80;;;10.40;91.70;;;;;;4987725;28;20034;-61
2023/10/25 07:36:16;;;;;;;9.75;5.80;;;10.40;91.70;;;;;;4987644;28;20038;-62
2023/10/25 07:38:42;;;;;;;5.22;4.40;;;10.50;91.70;;;;;;4987125;28;20081;-62
2023/10/25 07:41:07;;;;;;;5.25;4.00;;;10.50;91.70;;;;;;4988188;28;20050;-63
2023/10/25 07:43:33;;;;;;;3.58;3.28;;;10.50;91.70;;;;;;4987347;28;20398;-63
2023/10/25 07:45:58;;;;;;;3.28;3.03;;;10.50;91.70;;;;;;4987196;28;20133;-63
2023/10/25 07:48:24;;;;;;;3.65;3.25;;;10.50;91.80;;;;;;4987658;28;20041;-63
2023/10/25 07:50:50;;;;;;;3.60;3.30;;;10.50;91.90;;;;;;4986592;28;20518;-63
2023/10/25 07:53:15;;;;;;;3.60;3.30;;;10.60;92.40;;;;;;4987400;28;20454;-63
2023/10/25 07:55:41;;;;;;;3.95;3.63;;;10.60;92.10;;;;;;4987371;28;20069;-63
2023/10/25 07:58:07;;;;;;;5.90;4.45;;;10.60;92.30;;;;;;4987332;28;20150;-63
2023/10/25 08:00:33;;;;;;;7.47;5.18;;;10.70;92.30;;;;;;4987084;28;20065;-62
2023/10/25 08:02:59;;;;;;;6.75;5.47;;;10.70;92.30;;;;;;4985563;28;20046;-63
2023/10/25 08:05:25;;;;;;;12.48;8.57;;;10.80;92.30;;;;;;4987867;28;20045;-63
2023/10/25 08:07:51;;;;;;;10.43;7.18;;;10.80;92.30;;;;;;4988146;28;20442;-63
2023/10/25 08:10:17;;;;;;;9.43;7.38;;;10.90;92.30;;;;;;4985855;28;20039;-63
2023/10/25 08:12:42;;;;;;;7.88;5.70;;;10.90;92.40;;;;;;4986086;28;20032;-63
2023/10/25 08:15:08;;;;;;;7.47;5.53;;;11.00;92.50;;;;;;4987270;28;20518;-63
2023/10/25 08:17:34;;;;;;;4.95;4.45;;;11.10;92.50;;;;;;4987871;28;20133;-63
2023/10/25 08:19:59;;;;;;;4.50;4.10;;;11.20;92.60;;;;;;4987880;28;20457;-63
2023/10/25 08:22:25;;;;;;;4.47;3.90;;;11.30;92.70;;;;;;4988530;28;20043;-62
2023/10/25 08:24:51;;;;;;;5.65;3.72;;;11.30;92.70;;;;;;4987503;28;20038;-63
2023/10/25 08:27:17;;;;;;;3.92;3.53;;;11.40;92.70;;;;;;4988312;28;20451;-62
2023/10/25 08:29:43;;;;;;;4.15;3.80;;;11.50;92.60;;;;;;4987519;28;20398;-62
2023/10/25 08:32:08;;;;;;;6.47;3.83;;;11.60;92.50;;;;;;4987747;28;20030;-62
2023/10/25 08:34:34;;;;;;;5.95;3.88;;;11.60;92.50;;;;;;4986671;28;20058;-61
2023/10/25 08:37:00;;;;;;;5.47;3.90;;;11.70;92.50;;;;;;4987903;28;20042;-63
2023/10/25 08:39:25;;;;;;;5.72;4.25;;;11.80;92.60;;;;;;4987752;28;20560;-61
2023/10/25 08:41:52;;;;;;;5.00;4.07;;;11.80;92.60;;;;;;4988015;28;20022;-62
2023/10/25 08:44:18;;;;;;;5.03;4.07;;;12.00;92.70;;;;;;4987427;28;20089;-61
2023/10/25 08:46:44;;;;;;;5.20;3.78;;;12.00;92.70;;;;;;4987029;28;20402;-63
2023/10/25 08:49:10;;;;;;;3.88;3.58;;;12.10;92.70;;;;;;4987763;28;20034;-63
2023/10/25 08:51:35;;;;;;;5.90;3.75;;;12.20;92.80;;;;;;4987886;28;20581;-61
2023/10/25 08:54:01;;;;;;;4.40;4.00;;;12.30;92.70;;;;;;4987942;28;20092;-63
2023/10/25 08:56:26;;;;;;;5.70;3.85;;;12.40;92.70;;;;;;4987523;28;20038;-64
2023/10/25 08:58:56;;;;;;;5.78;4.10;;;12.40;92.60;;;;;;4991567;28;20088;-63
2023/10/25 09:01:22;;;;;;;6.45;4.03;;;12.50;92.50;;;;;;4991936;28;20405;-63
2023/10/25 09:03:47;;;;;;;4.43;3.85;;;12.60;92.50;;;;;;4990788;28;20666;-63
2023/10/25 09:06:23;;;;;;;5.10;4.38;;;12.70;92.50;;;;;;4992098;28;20494;-64
2023/10/25 09:08:59;;;;;;;5.38;3.70;;;12.80;92.40;;;;;;4991029;28;20038;-63
2023/10/25 09:11:25;;;;;;;4.28;3.63;;;12.80;92.40;;;;;;4987650;28;20393;-63
2023/10/25 09:13:57;;;;;;;3.92;3.50;;;12.90;92.30;;;;;;4990269;28;20033;-63
2023/10/25 09:16:26;;;;;;;4.10;3.70;;;13.00;92.30;;;;;;4987535;28;20414;-63
2023/10/25 09:18:52;;;;;;;3.67;3.38;;;13.00;92.20;;;;;;4990000;28;20416;-63
2023/10/25 09:21:27;;;;;;;4.72;4.00;;;13.10;92.20;;;;;;4991960;28;20031;-62
2023/10/25 09:23:56;;;;;;;5.25;3.58;;;13.20;92.10;;;;;;4988853;28;20114;-63
2023/10/25 09:26:25;;;;;;;5.55;4.20;;;13.20;92.10;;;;;;4991787;28;20448;-63
2023/10/25 09:28:54;;;;;;;6.13;3.83;;;13.30;92.10;;;;;;4990126;28;20037;-63
2023/10/25 09:31:26;;;;;;;3.90;3.38;;;13.30;91.90;;;;;;4991429;28;20041;-62
2023/10/25 09:33:53;;;;;;;3.90;3.60;;;13.40;91.90;;;;;;4990720;28;20022;-63
2023/10/25 09:36:19;;;;;;;5.03;3.40;;;13.50;91.90;;;;;;4991640;28;20035;-63
2023/10/25 09:38:45;;;;;;;4.45;3.75;;;13.50;91.90;;;;;;4990283;28;20051;-63
2023/10/25 09:41:16;;;;;;;4.43;3.92;;;13.60;91.80;;;;;;4991116;28;20045;-62
2023/10/25 09:43:49;;;;;;;4.28;3.80;;;13.60;91.80;;;;;;4989148;28;20414;-62
2023/10/25 09:46:22;;;;;;;4.22;3.83;;;13.70;91.80;;;;;;4991213;28;20070;-61
2023/10/25 09:48:59;;;;;;;4.78;3.35;;;13.70;91.70;;;;;;4990210;28;20042;-61
2023/10/25 09:51:59;;;;;;;3.47;3.20;;;13.80;91.80;;;;;;4991103;28;20034;-63
2023/10/25 09:54:32;;;;;;;3.90;3.55;;;13.90;91.80;;;;;;4990934;28;20038;-63
2023/10/25 09:56:59;;;;;;;4.10;3.63;;;13.90;91.80;;;;;;4990745;28;20038;-63
2023/10/25 09:59:32;;;;;;;3.75;3.10;;;14.00;91.90;;;;;;4991099;28;20478;-63
2023/10/25 10:02:03;;;;;;;3.83;2.97;;;14.10;91.90;;;;;;4990703;28;20027;-63
2023/10/25 10:05:03;;;;;;;3.38;2.90;;;14.20;92.00;;;;;;4989759;28;20038;-63
2023/10/25 10:07:38;;;;;;;3.70;2.67;;;14.30;92.00;;;;;;4984701;28;20052;-63
2023/10/25 10:10:12;;;;;;;2.70;2.50;;;14.40;91.90;;;;;;4989693;28;20034;-63
2023/10/25 10:12:38;;;;;;;2.88;2.67;;;14.50;91.90;;;;;;4987365;28;20034;-61
2023/10/25 10:15:04;;;;;;;3.47;2.60;;;14.60;91.80;;;;;;4990466;28;20085;-63
2023/10/25 10:17:34;;;;;;;2.55;2.35;;;14.70;91.80;;;;;;4990661;28;20052;-63
2023/10/25 10:20:04;;;;;;;4.53;2.10;;;14.80;91.70;;;;;;4988456;28;20041;-63
2023/10/25 10:22:30;;;;;;;1.45;1.30;;;14.90;91.70;;;;;;4989829;28;20045;-63
2023/10/25 10:25:04;;;;;;;1.80;0.90;;;15.00;91.70;;;;;;4989946;28;20039;-63
2023/10/25 10:27:42;;;;;;;1.15;0.60;;;15.10;91.40;;;;;;4990404;28;20401;-63
2023/10/25 10:30:32;;;;;;;0.55;0.40;;;15.20;90.60;;;;;;4990365;28;20104;-63
2023/10/25 10:32:57;;;;;;;0.93;0.73;;;15.30;90.20;;;;;;4990133;28;20042;-63
2023/10/25 10:35:24;;;;;;;1.17;0.60;;;15.40;90.50;;;;;;4988945;28;20035;-62
2023/10/25 10:37:56;;;;;;;0.70;0.70;;;15.40;90.10;;;;;;4990023;28;20394;-63
2023/10/25 10:40:22;;;;;;;0.70;0.70;;;15.50;89.20;;;;;;4990174;28;20054;-62
2023/10/25 10:42:48;;;;;;;0.80;0.70;;;15.60;89.50;;;;;;4988923;28;20050;-61
2023/10/25 10:45:19;;;;;;;0.80;0.80;;;15.60;89.60;;;;;;4990086;28;20397;-62
2023/10/25 10:47:53;;;;;;;0.63;0.63;;;15.60;90.10;;;;;;4989689;28;20485;-62
2023/10/25 10:50:24;;;;;;;0.93;0.80;;;15.70;89.20;;;;;;4989915;28;20041;-63
2023/10/25 10:52:52;;;;;;;4.53;0.88;;;15.70;89.30;;;;;;4989448;28;20513;-62
2023/10/25 10:55:21;;;;;;;1.52;0.80;;;15.90;89.60;;;;;;4989476;28;20054;-62
2023/10/25 10:57:47;;;;;;;0.80;0.75;;;15.90;89.10;;;;;;4989708;28;20088;-62
2023/10/25 11:00:16;;;;;;;0.82;0.65;;;15.90;88.80;;;;;;4989360;28;20517;-63
2023/10/25 11:02:50;;;;;;;1.88;0.50;;;16.00;88.20;;;;;;4988993;28;20528;-63
2023/10/25 11:05:19;;;;;;;0.43;0.43;;;16.00;87.50;;;;;;4989152;28;20058;-62
2023/10/25 11:07:47;;;;;;;0.80;0.43;;;16.00;88.20;;;;;;4989498;28;20097;-63
2023/10/25 11:10:12;;;;;;;0.20;0.20;;;16.10;88.10;;;;;;4988499;28;20026;-63
2023/10/25 11:12:39;;;;;;;1.40;0.40;;;16.20;87.90;;;;;;4987037;28;20559;-61
2023/10/25 11:15:05;;;;;;;1.48;0.30;;;16.20;87.40;;;;;;4988608;28;20074;-63
2023/10/25 11:17:31;;;;;;;1.95;0.50;;;16.30;87.30;;;;;;4989259;28;20041;-63
2023/10/25 11:19:57;;;;;;;0.43;0.40;;;16.30;87.20;;;;;;4989204;28;20034;-62
2023/10/25 11:22:23;;;;;;;1.02;0.35;;;16.40;86.70;;;;;;4988640;28;20038;-63
2023/10/25 11:24:50;;;;;;;0.40;0.40;;;16.40;86.60;;;;;;4987458;28;20518;-62
2023/10/25 11:27:16;;;;;;;0.40;0.40;;;16.50;86.20;;;;;;4987350;28;20069;-61
2023/10/25 11:29:42;;;;;;;0.70;0.70;;;16.50;86.40;;;;;;4987055;28;20530;-63
2023/10/25 11:32:14;;;;;;;0.60;0.60;;;16.60;86.40;;;;;;4989450;28;20046;-62
2023/10/25 11:34:43;;;;;;;0.95;0.50;;;16.60;86.00;;;;;;4987214;28;20084;-61
2023/10/25 11:37:10;;;;;;;0.40;0.40;;;16.60;85.40;;;;;;4989115;28;20517;-62
2023/10/25 11:39:54;;;;;;;0.50;0.50;;;16.70;85.70;;;;;;4989010;28;20121;-63
2023/10/25 11:42:20;;;;;;;0.75;0.50;;;16.70;84.80;;;;;;4989135;28;20042;-63
2023/10/25 11:44:46;;;;;;;0.70;0.70;;;16.80;85.80;;;;;;4987989;28;20042;-63
2023/10/25 11:47:19;;;;;;;0.50;0.50;;;16.80;85.50;;;;;;4988865;28;20046;-62
2023/10/25 11:49:54;;;;;;;3.80;0.60;;;16.80;84.50;;;;;;4988657;28;20094;-63
2023/10/25 11:52:21;;;;;;;0.70;0.70;;;16.80;84.50;;;;;;4988667;28;20072;-62
2023/10/25 11:54:47;;;;;;;0.68;0.68;;;16.80;85.00;;;;;;4987582;28;20498;-63
2023/10/25 11:57:13;;;;;;;0.50;0.50;;;16.90;84.50;;;;;;4988880;28;20073;-63
2023/10/25 11:59:38;;;;;;;1.67;0.80;;;16.90;84.30;;;;;;4988280;28;20038;-62
2023/10/25 12:02:04;;;;;;;0.60;0.60;;;16.90;84.30;;;;;;4988398;28;20129;-63
2023/10/25 12:04:29;;;;;;;0.70;0.47;;;17.00;84.20;;;;;;4987626;28;20053;-62
2023/10/25 12:06:55;;;;;;;1.25;0.52;;;17.00;84.20;;;;;;4988104;28;20057;-63
2023/10/25 12:09:21;;;;;;;0.70;0.65;;;17.00;84.30;;;;;;4988629;28;20085;-63
2023/10/25 12:11:46;;;;;;;0.70;0.50;;;17.00;84.10;;;;;;4984510;28;20041;-62
2023/10/25 12:14:12;;;;;;;2.15;0.50;;;17.10;83.80;;;;;;4988444;28;20042;-62
2023/10/25 12:16:37;;;;;;;0.30;0.30;;;17.10;83.70;;;;;;4987613;28;20040;-62
2023/10/25 12:19:03;;;;;;;0.40;0.40;;;17.10;83.60;;;;;;4988585;28;20085;-63
2023/10/25 12:21:29;;;;;;;0.32;0.30;;;17.20;83.50;;;;;;4988453;28;20513;-62
2023/10/25 12:23:54;;;;;;;0.43;0.40;;;17.20;83.00;;;;;;4987682;28;20038;-62
2023/10/25 12:26:20;;;;;;;0.43;0.40;;;17.20;82.90;;;;;;4988291;28;20113;-62
2023/10/25 12:28:46;;;;;;;0.52;0.38;;;17.30;82.80;;;;;;4985846;28;20045;-63
2023/10/25 12:31:11;;;;;;;0.32;0.30;;;17.40;82.30;;;;;;4985627;28;20420;-62
2023/10/25 12:33:37;;;;;;;1.30;0.30;;;17.40;81.80;;;;;;4985861;28;20524;-62
2023/10/25 12:36:03;;;;;;;0.52;0.20;;;17.40;81.30;;;;;;4987384;28;20044;-63
2023/10/25 12:38:29;;;;;;;0.77;0.30;;;17.40;81.10;;;;;;4986714;28;20058;-62
2023/10/25 12:40:55;;;;;;;0.70;0.38;;;17.40;80.60;;;;;;4987958;28;20066;-63
2023/10/25 12:43:20;;;;;;;0.40;0.22;;;17.50;80.30;;;;;;4988282;28;20065;-62
2023/10/25 12:45:46;;;;;;;1.08;0.30;;;17.50;79.60;;;;;;4987923;28;20038;-63